createdAt,value
2022-07-31T00:02:15.358Z,4.40
2022-07-31T00:04:48.225Z,4.40
2022-07-31T00:07:21.470Z,4.40
2022-07-31T00:09:56.725Z,4.60
2022-07-31T00:12:29.558Z,4.70
2022-07-31T00:15:02.416Z,5.10
2022-07-31T00:17:35.251Z,5.20
2022-07-31T00:20:08.977Z,5.10
2022-07-31T00:22:41.816Z,5.27
2022-07-31T00:25:15.704Z,5.10
2022-07-31T00:27:48.720Z,5.40
2022-07-31T00:30:21.620Z,5.60
2022-07-31T00:32:58.313Z,5.60
2022-07-31T00:35:56.723Z,5.70
2022-07-31T00:38:28.180Z,5.20
2022-07-31T00:41:01.261Z,5.40
2022-07-31T00:43:34.251Z,4.90
2022-07-31T00:46:07.316Z,4.90
2022-07-31T00:48:41.461Z,5.20
2022-07-31T00:51:14.203Z,5.10
2022-07-31T00:53:46.908Z,5.17
2022-07-31T00:56:19.906Z,5.40
2022-07-31T00:58:59.913Z,5.67
2022-07-31T01:01:32.897Z,5.20
2022-07-31T01:04:15.535Z,5.07
2022-07-31T01:06:43.142Z,4.90
2022-07-31T01:09:23.912Z,5.00
2022-07-31T01:12:01.707Z,5.00
2022-07-31T01:14:42.375Z,4.80
2022-07-31T01:17:18.666Z,4.60
2022-07-31T01:19:53.329Z,5.30
2022-07-31T01:22:43.113Z,5.10
2022-07-31T01:25:40.343Z,5.00
2022-07-31T01:28:23.896Z,5.10
2022-07-31T01:31:26.185Z,5.60
2022-07-31T01:33:44.126Z,5.33
2022-07-31T01:36:19.269Z,5.57
2022-07-31T01:38:58.499Z,5.30
2022-07-31T01:41:33.212Z,5.80
2022-07-31T01:44:07.673Z,5.50
2022-07-31T01:46:42.715Z,5.37
2022-07-31T01:49:20.966Z,5.40
2022-07-31T01:51:54.981Z,5.30
2022-07-31T01:54:33.818Z,5.60
2022-07-31T01:57:08.625Z,5.30
2022-07-31T01:59:46.875Z,5.70
2022-07-31T02:02:21.527Z,5.20
2022-07-31T02:04:55.895Z,5.17
2022-07-31T02:07:31.472Z,5.40
2022-07-31T02:10:05.117Z,5.00
2022-07-31T02:12:40.111Z,4.60
2022-07-31T02:15:14.804Z,4.83
2022-07-31T02:17:49.767Z,4.70
2022-07-31T02:20:23.855Z,4.80
2022-07-31T02:22:56.843Z,4.93
2022-07-31T02:25:30.188Z,5.00
2022-07-31T02:28:04.152Z,5.10
2022-07-31T02:30:39.925Z,5.00
2022-07-31T02:33:14.995Z,5.00
2022-07-31T02:35:48.803Z,5.00
2022-07-31T02:38:24.052Z,5.20
2022-07-31T02:40:58.638Z,4.90
2022-07-31T02:43:32.437Z,4.77
2022-07-31T02:46:07.083Z,4.70
2022-07-31T02:48:40.034Z,4.70
2022-07-31T02:51:13.305Z,4.80
2022-07-31T02:53:46.811Z,5.10
2022-07-31T02:56:20.164Z,5.00
2022-07-31T02:58:53.277Z,4.70
2022-07-31T03:01:27.473Z,4.60
2022-07-31T03:04:00.374Z,4.30
2022-07-31T03:06:33.408Z,4.00
2022-07-31T03:09:10.385Z,4.00
2022-07-31T03:11:44.317Z,4.00
2022-07-31T03:14:22.413Z,4.20
2022-07-31T03:16:56.708Z,4.40
2022-07-31T03:19:34.056Z,4.47
2022-07-31T03:22:08.156Z,4.30
2022-07-31T03:24:41.162Z,4.20
2022-07-31T03:27:13.913Z,4.10
2022-07-31T03:32:53.802Z,4.30
2022-07-31T03:35:31.262Z,4.57
2022-07-31T03:38:40.515Z,4.40
2022-07-31T03:40:55.358Z,4.50
2022-07-31T03:43:12.604Z,4.30
2022-07-31T03:45:47.136Z,4.60
2022-07-31T03:48:19.906Z,4.10
2022-07-31T03:50:52.977Z,4.20
2022-07-31T03:53:26.858Z,3.80
2022-07-31T03:56:00.808Z,4.00
2022-07-31T03:58:34.007Z,3.80
2022-07-31T04:01:10.564Z,3.80
2022-07-31T04:03:44.696Z,3.90
2022-07-31T04:06:17.727Z,3.80
2022-07-31T04:08:50.777Z,4.00
2022-07-31T04:11:28.116Z,3.80
2022-07-31T04:14:01.036Z,3.80
2022-07-31T04:16:33.947Z,3.73
2022-07-31T04:19:06.907Z,3.80
2022-07-31T04:21:39.826Z,3.80
2022-07-31T04:24:13.535Z,3.60
2022-07-31T04:26:49.342Z,3.70
2022-07-31T04:29:22.882Z,3.50
2022-07-31T04:31:56.032Z,3.40
2022-07-31T04:34:28.907Z,3.50
2022-07-31T04:37:01.724Z,3.40
2022-07-31T04:39:34.458Z,3.60
2022-07-31T04:42:12.279Z,3.60
2022-07-31T04:44:45.366Z,3.40
2022-07-31T04:47:18.597Z,3.50
2022-07-31T04:49:55.475Z,3.70
2022-07-31T04:52:28.333Z,3.30
2022-07-31T04:55:01.574Z,3.40
2022-07-31T04:57:38.249Z,3.40
2022-07-31T05:00:12.180Z,3.30
2022-07-31T05:02:44.934Z,3.20
2022-07-31T05:05:19.140Z,3.40
2022-07-31T05:07:52.038Z,3.20
2022-07-31T05:10:43.436Z,3.10
2022-07-31T05:13:16.751Z,3.30
2022-07-31T05:15:53.741Z,3.27
2022-07-31T05:18:26.445Z,3.40
2022-07-31T05:21:04.415Z,3.20
2022-07-31T05:23:37.088Z,3.13
2022-07-31T05:26:10.151Z,3.20
2022-07-31T05:28:46.662Z,3.10
2022-07-31T05:31:20.012Z,3.20
2022-07-31T05:33:53.948Z,3.20
2022-07-31T05:36:26.773Z,3.00
2022-07-31T05:38:59.512Z,3.10
2022-07-31T05:41:33.664Z,3.40
2022-07-31T05:44:06.388Z,3.00
2022-07-31T05:46:39.214Z,2.80
2022-07-31T05:49:14.172Z,2.80
2022-07-31T05:51:51.292Z,2.70
2022-07-31T05:54:24.620Z,2.60
2022-07-31T05:56:57.379Z,2.70
2022-07-31T05:59:30.324Z,2.63
2022-07-31T06:02:03.425Z,2.80
2022-07-31T06:04:37.018Z,2.53
2022-07-31T06:07:11.722Z,2.73
2022-07-31T06:09:45.064Z,2.47
2022-07-31T06:12:19.109Z,2.60
2022-07-31T06:14:52.550Z,2.40
2022-07-31T06:17:40.395Z,2.70
2022-07-31T06:19:59.552Z,2.50
2022-07-31T06:22:32.412Z,2.40
2022-07-31T06:25:05.453Z,2.40
2022-07-31T06:27:38.791Z,2.30
2022-07-31T06:30:13.693Z,2.30
2022-07-31T06:32:47.917Z,2.30
2022-07-31T06:35:20.725Z,2.10
2022-07-31T06:37:53.372Z,2.20
2022-07-31T06:40:26.204Z,2.20
2022-07-31T06:43:00.212Z,2.20
2022-07-31T06:45:50.840Z,2.20
2022-07-31T06:48:07.361Z,2.20
2022-07-31T06:50:40.197Z,2.30
2022-07-31T06:53:17.043Z,2.30
2022-07-31T06:55:49.944Z,2.30
2022-07-31T06:58:22.813Z,2.10
2022-07-31T07:00:58.861Z,2.20
2022-07-31T07:03:31.714Z,2.20
2022-07-31T07:06:05.454Z,2.40
2022-07-31T07:08:38.341Z,2.30
2022-07-31T07:11:12.438Z,2.40
2022-07-31T07:13:46.949Z,2.40
2022-07-31T07:16:20.857Z,2.10
2022-07-31T07:18:53.865Z,2.20
2022-07-31T07:21:28.171Z,1.90
2022-07-31T07:24:05.381Z,1.97
2022-07-31T07:26:38.333Z,1.90
2022-07-31T07:29:16.659Z,1.80
2022-07-31T07:31:49.653Z,2.00
2022-07-31T07:34:27.037Z,2.43
2022-07-31T07:37:00.037Z,2.10
2022-07-31T07:39:34.106Z,2.20
2022-07-31T07:42:07.624Z,2.20
2022-07-31T07:44:40.707Z,2.10
2022-07-31T07:47:13.685Z,2.20
2022-07-31T07:49:46.666Z,2.10
2022-07-31T07:52:19.683Z,2.50
2022-07-31T07:54:56.715Z,2.20
2022-07-31T07:57:29.760Z,2.10
2022-07-31T08:00:07.123Z,2.10
2022-07-31T08:02:40.043Z,2.00
2022-07-31T08:05:13.196Z,2.20
2022-07-31T08:07:46.305Z,2.10
2022-07-31T08:10:20.539Z,2.10
2022-07-31T08:12:53.606Z,2.10
2022-07-31T08:15:27.697Z,2.10
2022-07-31T08:18:00.645Z,2.10
2022-07-31T08:20:33.989Z,2.00
2022-07-31T08:23:07.383Z,2.10
2022-07-31T08:25:40.184Z,2.17
2022-07-31T08:28:19.325Z,2.20
2022-07-31T08:30:47.905Z,2.20
2022-07-31T08:33:21.078Z,2.50
2022-07-31T08:35:53.983Z,2.30
2022-07-31T08:38:26.931Z,2.20
2022-07-31T08:40:59.949Z,2.10
2022-07-31T08:44:03.250Z,2.20
2022-07-31T08:46:09.765Z,2.20
2022-07-31T08:48:47.668Z,2.20
2022-07-31T08:51:21.775Z,2.20
2022-07-31T08:53:56.527Z,2.20
2022-07-31T08:56:29.293Z,2.10
2022-07-31T08:59:06.425Z,2.10
2022-07-31T09:01:40.744Z,2.00
2022-07-31T09:04:13.695Z,2.10
2022-07-31T09:06:46.631Z,2.20
2022-07-31T09:09:23.421Z,2.00
2022-07-31T09:11:57.585Z,2.00
2022-07-31T09:14:35.634Z,2.00
2022-07-31T09:17:13.800Z,2.00
2022-07-31T09:19:52.579Z,2.20
2022-07-31T09:22:31.461Z,2.20
2022-07-31T09:25:17.182Z,2.13
2022-07-31T09:27:51.702Z,2.00
2022-07-31T09:30:24.538Z,1.90
2022-07-31T09:32:58.646Z,1.90
2022-07-31T09:35:31.765Z,2.00
2022-07-31T09:38:04.718Z,2.00
2022-07-31T09:40:48.327Z,1.80
2022-07-31T09:43:22.058Z,2.00
2022-07-31T09:46:06.104Z,1.90
2022-07-31T09:48:39.705Z,1.80
2022-07-31T09:51:13.798Z,1.80
2022-07-31T09:53:52.374Z,1.90
2022-07-31T09:56:37.908Z,2.00
2022-07-31T09:59:11.619Z,2.20
2022-07-31T10:01:45.314Z,2.00
2022-07-31T10:04:18.935Z,1.80
2022-07-31T10:06:53.134Z,1.90
2022-07-31T10:09:27.426Z,2.03
2022-07-31T10:12:03.775Z,2.00
2022-07-31T10:14:41.475Z,2.00
2022-07-31T10:17:15.489Z,1.90
2022-07-31T10:19:52.976Z,2.07
2022-07-31T10:22:27.512Z,2.00
2022-07-31T10:25:04.480Z,1.80
2022-07-31T10:27:39.356Z,1.70
2022-07-31T10:30:21.961Z,1.90
2022-07-31T10:32:52.004Z,2.00
2022-07-31T10:35:24.829Z,1.80
2022-07-31T10:37:59.645Z,1.80
2022-07-31T10:40:34.784Z,1.70
2022-07-31T10:43:12.289Z,1.77
2022-07-31T10:45:56.104Z,1.70
2022-07-31T10:48:28.881Z,1.70
2022-07-31T10:51:14.027Z,1.60
2022-07-31T10:53:55.387Z,1.70
2022-07-31T10:56:27.187Z,1.60
2022-07-31T10:59:04.072Z,1.70
2022-07-31T11:01:37.055Z,1.70
2022-07-31T11:04:09.938Z,1.70
2022-07-31T11:06:46.532Z,1.70
2022-07-31T11:09:29.966Z,1.60
2022-07-31T11:12:03.608Z,1.60
2022-07-31T11:14:38.377Z,1.60
2022-07-31T11:17:15.433Z,1.90
2022-07-31T11:19:50.084Z,1.90
2022-07-31T11:22:32.122Z,1.90
2022-07-31T11:25:00.452Z,1.87
2022-07-31T11:27:40.582Z,1.80
2022-07-31T11:30:18.050Z,1.73
2022-07-31T11:32:54.567Z,1.90
2022-07-31T11:35:34.866Z,1.80
2022-07-31T11:38:07.637Z,1.80
2022-07-31T11:40:40.714Z,1.70
2022-07-31T11:43:29.257Z,1.70
2022-07-31T11:45:53.119Z,1.70
2022-07-31T11:48:28.640Z,1.60
2022-07-31T11:51:02.810Z,1.70
2022-07-31T11:53:37.217Z,1.70
2022-07-31T11:56:10.306Z,1.70
2022-07-31T11:58:44.620Z,1.70
2022-07-31T12:01:17.363Z,1.77
2022-07-31T12:03:55.422Z,1.70
2022-07-31T12:06:30.925Z,1.70
2022-07-31T12:09:04.789Z,1.60
2022-07-31T12:11:36.572Z,1.70
2022-07-31T12:14:09.914Z,1.60
2022-07-31T12:16:46.173Z,1.80
2022-07-31T12:19:21.212Z,1.70
2022-07-31T12:21:54.094Z,1.90
2022-07-31T12:24:27.229Z,1.70
2022-07-31T12:27:05.000Z,1.70
2022-07-31T12:29:39.908Z,1.77
2022-07-31T12:32:12.691Z,1.80
2022-07-31T12:34:46.638Z,1.70
2022-07-31T12:37:22.124Z,1.70
2022-07-31T12:40:01.631Z,1.60
2022-07-31T12:42:41.879Z,1.80
2022-07-31T12:45:18.283Z,1.80
2022-07-31T12:47:51.727Z,1.80
2022-07-31T12:50:22.025Z,1.70
2022-07-31T12:52:55.327Z,1.60
2022-07-31T12:55:28.385Z,1.70
2022-07-31T12:58:01.377Z,1.60
2022-07-31T13:00:38.156Z,1.80
2022-07-31T13:03:07.993Z,1.70
2022-07-31T13:05:41.226Z,1.60
2022-07-31T13:08:14.991Z,1.60
2022-07-31T13:10:48.048Z,1.70
2022-07-31T13:13:21.264Z,1.60
2022-07-31T13:15:54.220Z,1.73
2022-07-31T13:18:27.075Z,1.70
2022-07-31T13:21:00.019Z,1.70
2022-07-31T13:23:33.485Z,1.63
2022-07-31T13:26:06.727Z,1.70
2022-07-31T13:28:39.530Z,1.70
2022-07-31T13:31:16.529Z,1.63
2022-07-31T13:33:49.458Z,1.60
2022-07-31T13:36:22.384Z,1.70
2022-07-31T13:38:55.187Z,1.50
2022-07-31T13:41:29.243Z,1.50
2022-07-31T13:44:02.281Z,1.60
2022-07-31T13:46:35.727Z,1.70
2022-07-31T13:49:09.675Z,1.70
2022-07-31T13:51:43.129Z,1.60
2022-07-31T13:54:18.532Z,1.60
2022-07-31T13:56:55.354Z,1.60
2022-07-31T13:59:29.052Z,1.60
2022-07-31T14:02:04.651Z,1.60
2022-07-31T14:04:38.950Z,1.50
2022-07-31T14:07:12.946Z,1.60
2022-07-31T14:09:51.354Z,1.40
2022-07-31T14:12:18.029Z,1.60
2022-07-31T14:14:51.181Z,1.50
2022-07-31T14:17:25.242Z,1.50
2022-07-31T14:19:58.077Z,1.30
2022-07-31T14:22:32.960Z,1.40
2022-07-31T14:25:06.048Z,1.50
2022-07-31T14:27:40.238Z,1.40
2022-07-31T14:30:14.404Z,1.43
2022-07-31T14:32:48.473Z,1.40
2022-07-31T14:35:21.410Z,1.40
2022-07-31T14:37:54.403Z,1.43
2022-07-31T14:40:27.341Z,1.50
2022-07-31T14:43:00.695Z,1.40
2022-07-31T14:45:51.021Z,1.40
2022-07-31T14:48:12.424Z,1.50
2022-07-31T14:50:46.460Z,1.50
2022-07-31T14:53:19.624Z,1.50
2022-07-31T14:55:52.636Z,1.50
2022-07-31T14:58:25.669Z,1.50
2022-07-31T15:00:59.071Z,1.60
2022-07-31T15:03:32.053Z,1.60
2022-07-31T15:06:40.155Z,1.60
2022-07-31T15:08:40.401Z,1.50
2022-07-31T15:11:13.532Z,1.40
2022-07-31T15:13:47.070Z,1.50
2022-07-31T15:16:19.914Z,1.50
2022-07-31T15:18:53.054Z,1.50
2022-07-31T15:21:26.202Z,1.40
2022-07-31T15:23:59.105Z,1.40
2022-07-31T15:26:32.111Z,1.40
2022-07-31T15:29:04.822Z,1.33
2022-07-31T15:31:37.597Z,1.40
2022-07-31T15:34:10.265Z,1.50
2022-07-31T15:36:45.142Z,1.50
2022-07-31T15:39:17.987Z,1.50
2022-07-31T15:41:50.849Z,1.50
2022-07-31T15:44:23.727Z,1.50
2022-07-31T15:46:56.559Z,1.50
2022-07-31T15:49:29.351Z,1.50
2022-07-31T15:52:03.351Z,1.40
2022-07-31T15:54:37.330Z,1.50
2022-07-31T15:57:10.141Z,1.50
2022-07-31T15:59:42.848Z,1.50
2022-07-31T16:02:15.663Z,1.50
2022-07-31T16:04:53.800Z,1.40
2022-07-31T16:08:32.083Z,1.50
2022-07-31T16:10:04.000Z,1.40
2022-07-31T16:12:31.084Z,1.40
2022-07-31T16:15:04.313Z,1.30
2022-07-31T16:17:41.715Z,1.50
2022-07-31T16:20:25.292Z,1.40
2022-07-31T16:22:55.925Z,1.50
2022-07-31T16:25:29.680Z,1.47
2022-07-31T16:28:07.776Z,1.40
2022-07-31T16:30:40.641Z,1.40
2022-07-31T16:33:13.443Z,1.50
2022-07-31T16:35:46.208Z,1.30
2022-07-31T16:38:19.187Z,1.40
2022-07-31T16:40:53.510Z,1.40
2022-07-31T16:43:47.508Z,1.50
2022-07-31T16:46:00.200Z,1.60
2022-07-31T16:48:35.162Z,1.50
2022-07-31T16:51:08.293Z,1.40
2022-07-31T16:54:10.936Z,1.40
2022-07-31T16:56:15.759Z,1.40
2022-07-31T16:58:54.356Z,1.50
2022-07-31T17:01:53.997Z,1.40
2022-07-31T17:04:04.221Z,1.40
2022-07-31T17:06:41.628Z,1.30
2022-07-31T17:09:22.292Z,1.47
2022-07-31T17:11:57.211Z,1.30
2022-07-31T17:14:34.774Z,1.30
2022-07-31T17:17:08.034Z,1.40
2022-07-31T17:19:46.687Z,1.40
2022-07-31T17:22:16.220Z,1.40
2022-07-31T17:24:51.540Z,1.30
2022-07-31T17:27:25.973Z,1.37
2022-07-31T17:29:58.786Z,1.40
2022-07-31T17:32:32.762Z,1.30
2022-07-31T17:35:05.575Z,1.30
2022-07-31T17:37:38.343Z,1.30
2022-07-31T17:40:33.568Z,1.30
2022-07-31T17:42:46.409Z,1.30
2022-07-31T17:45:19.163Z,1.27
2022-07-31T17:48:02.563Z,1.30
2022-07-31T17:50:26.926Z,1.23
2022-07-31T17:53:00.148Z,1.20
2022-07-31T17:55:32.859Z,1.27
2022-07-31T17:58:05.675Z,1.50
2022-07-31T18:00:38.861Z,1.20
2022-07-31T18:03:11.574Z,1.20
2022-07-31T18:05:44.393Z,1.20
2022-07-31T18:08:17.560Z,1.30
2022-07-31T18:10:54.625Z,1.30
2022-07-31T18:13:24.762Z,1.20
2022-07-31T18:15:57.815Z,1.30
2022-07-31T18:18:31.142Z,1.20
2022-07-31T18:21:04.075Z,1.30
2022-07-31T18:23:37.017Z,1.10
2022-07-31T18:26:10.974Z,1.30
2022-07-31T18:28:43.901Z,1.17
2022-07-31T18:31:33.880Z,1.20
2022-07-31T18:33:51.125Z,1.10
2022-07-31T18:36:24.000Z,1.10
2022-07-31T18:38:57.079Z,1.20
2022-07-31T18:41:30.447Z,1.13
2022-07-31T18:44:03.643Z,1.20
2022-07-31T18:46:36.650Z,1.10
2022-07-31T18:50:59.543Z,1.20
2022-07-31T18:51:46.321Z,1.20
2022-07-31T18:54:19.853Z,1.10
2022-07-31T18:56:52.917Z,1.13
2022-07-31T18:59:30.422Z,1.10
2022-07-31T19:02:03.778Z,1.10
2022-07-31T19:04:37.259Z,1.20
2022-07-31T19:07:10.675Z,1.20
2022-07-31T19:09:43.644Z,1.20
2022-07-31T19:12:19.057Z,1.20
2022-07-31T19:14:51.986Z,1.10
2022-07-31T19:17:24.632Z,1.20
2022-07-31T19:20:03.202Z,1.20
2022-07-31T19:22:36.234Z,1.20
2022-07-31T19:25:09.577Z,1.20
2022-07-31T19:27:47.963Z,1.10
2022-07-31T19:30:17.372Z,1.10
2022-07-31T19:32:50.415Z,1.10
2022-07-31T19:35:23.484Z,1.20
2022-07-31T19:38:06.901Z,1.20
2022-07-31T19:40:40.189Z,1.10
2022-07-31T19:43:13.642Z,1.13
2022-07-31T19:46:00.598Z,1.10
2022-07-31T19:48:26.536Z,1.20
2022-07-31T19:50:59.428Z,1.20
2022-07-31T19:53:32.212Z,1.20
2022-07-31T19:56:10.457Z,1.17
2022-07-31T19:58:43.725Z,1.20
2022-07-31T20:01:16.559Z,1.10
2022-07-31T20:03:49.641Z,1.20
2022-07-31T20:06:22.962Z,1.30
2022-07-31T20:08:56.933Z,1.30
2022-07-31T20:11:29.716Z,1.20
2022-07-31T20:14:02.740Z,1.23
2022-07-31T20:16:35.812Z,1.30
2022-07-31T20:19:08.990Z,1.30
2022-07-31T20:21:42.095Z,1.30
2022-07-31T20:24:19.214Z,1.47
2022-07-31T20:26:56.579Z,1.30
2022-07-31T20:29:30.230Z,1.40
2022-07-31T20:32:03.348Z,1.50
2022-07-31T20:34:36.313Z,1.40
2022-07-31T20:37:13.437Z,1.40
2022-07-31T20:39:46.291Z,1.60
2022-07-31T20:42:19.198Z,1.50
2022-07-31T20:44:52.049Z,1.50
2022-07-31T20:47:24.805Z,1.70
2022-07-31T20:49:57.637Z,1.40
2022-07-31T20:52:30.497Z,1.53
2022-07-31T20:55:03.220Z,1.60
2022-07-31T20:57:36.097Z,1.77
2022-07-31T21:00:13.221Z,1.70
2022-07-31T21:02:46.163Z,1.70
2022-07-31T21:05:27.193Z,2.30
2022-07-31T21:07:53.091Z,2.37
2022-07-31T21:10:29.308Z,2.50
2022-07-31T21:13:01.276Z,2.43
2022-07-31T21:15:43.358Z,2.30
2022-07-31T21:18:09.007Z,2.50
2022-07-31T21:20:51.588Z,2.50
2022-07-31T21:23:16.320Z,2.60
2022-07-31T21:25:49.469Z,2.80
2022-07-31T21:28:22.554Z,2.90
2022-07-31T21:31:02.143Z,2.90
2022-07-31T21:33:37.566Z,3.10
2022-07-31T21:36:11.083Z,3.07
2022-07-31T21:38:45.598Z,3.20
2022-07-31T21:41:19.492Z,2.60
2022-07-31T21:43:58.537Z,3.27
2022-07-31T21:46:29.105Z,2.93
2022-07-31T21:49:02.326Z,2.90
2022-07-31T21:51:36.690Z,3.00
2022-07-31T21:54:10.078Z,3.10
2022-07-31T21:56:42.958Z,3.10
2022-07-31T21:59:17.091Z,3.43
2022-07-31T22:01:57.761Z,3.10
2022-07-31T22:04:29.988Z,3.50
2022-07-31T22:07:02.367Z,3.13
2022-07-31T22:09:35.096Z,3.10
2022-07-31T22:12:08.341Z,3.00
2022-07-31T22:14:41.354Z,2.90
2022-07-31T22:17:14.421Z,3.30
2022-07-31T22:19:48.225Z,3.60
2022-07-31T22:22:21.887Z,3.80
2022-07-31T22:24:54.907Z,3.70
2022-07-31T22:27:45.385Z,4.00
2022-07-31T22:30:19.845Z,3.70
2022-07-31T22:32:53.511Z,3.80
2022-07-31T22:35:29.345Z,4.10
2022-07-31T22:38:06.187Z,3.90
2022-07-31T22:40:44.117Z,4.00
2022-07-31T22:44:12.299Z,3.70
2022-07-31T22:45:54.079Z,3.80
2022-07-31T22:48:29.122Z,4.33
2022-07-31T22:51:03.329Z,4.10
2022-07-31T22:53:39.265Z,4.23
2022-07-31T22:56:12.287Z,4.30
2022-07-31T22:58:45.513Z,4.40
2022-07-31T23:01:18.937Z,4.70
2022-07-31T23:03:51.690Z,4.50
2022-07-31T23:06:31.055Z,4.40
2022-07-31T23:08:58.686Z,4.50
2022-07-31T23:11:32.008Z,4.50
2022-07-31T23:14:04.706Z,4.73
2022-07-31T23:16:37.802Z,4.60
2022-07-31T23:19:10.670Z,4.80
2022-07-31T23:21:43.388Z,4.90
2022-07-31T23:24:16.192Z,4.83
2022-07-31T23:26:49.011Z,4.60
2022-07-31T23:29:21.805Z,4.80
2022-07-31T23:31:54.579Z,5.10
2022-07-31T23:34:27.389Z,5.10
2022-07-31T23:37:01.570Z,5.03
2022-07-31T23:39:35.077Z,4.80
2022-07-31T23:42:25.533Z,4.90
2022-07-31T23:44:58.457Z,5.00
2022-07-31T23:47:44.851Z,5.00
2022-07-31T23:50:06.048Z,5.13
2022-07-31T23:52:38.910Z,5.10
2022-07-31T23:55:12.132Z,4.90
2022-07-31T23:57:45.735Z,4.90
